বাংলা English Search

Maritime Ports have been advised to hoist local cautionary signal no. three (R) three.

TAF

TAF VGHS 081700Z 0818/0924 16010KT 3500 HZ SCT015 BKN100
TEMPO 0822/0904 12020KT 2000 RA/TSRA BKN008 FEW025CB OVC090
BECMG 0905/0907 12012KT 4000 HZ SCT015 BKN100
BECMG 0912/0914 17010KT  4000 HZ SCT012 BKN100=

TAF VGEG 081700Z 0818/0924 17005KT 5000 SCT015 BKN100
  BECMG 0902/0904 16005KT 4000 SCT015 BKN100
  BECMG 0912/0914 18010KT 5000 SCT016 SCT100
  BECMG 0920/0922 17005KT 5000 SCT015 BKN100=

TAF VGSY 081000Z 0812/0918 15005KT 4000HZ SCT015 BKN100 BECMG 0823/0901 06004KT 3000HZ SCT012 BKN100 BECMG 0903/0905 09005KT 3500HZ SCT015 BKN100 TEMPO 0815/0906 18020KT 2000 RA/TSRA BKN007 FEW025CB OVC 090=